sensor_id;sensor_type;location;lat;lon;timestamp;pressure;altitude;pressure_sealevel;temperature;humidity
19096;BME280;9680;52.520;13.332;2023-04-01T00:00:25;99411.88;;;10.70;90.37
19096;BME280;9680;52.520;13.332;2023-04-01T00:02:52;99403.03;;;10.72;89.83
19096;BME280;9680;52.520;13.332;2023-04-01T00:05:19;99398.00;;;10.69;89.94
19096;BME280;9680;52.520;13.332;2023-04-01T00:07:46;99399.13;;;10.65;89.80
19096;BME280;9680;52.520;13.332;2023-04-01T00:10:13;99402.59;;;10.66;89.75
19096;BME280;9680;52.520;13.332;2023-04-01T00:12:40;99405.25;;;10.64;89.52
19096;BME280;9680;52.520;13.332;2023-04-01T00:15:10;99405.38;;;10.62;90.11
19096;BME280;9680;52.520;13.332;2023-04-01T00:17:38;99402.66;;;10.64;89.93
19096;BME280;9680;52.520;13.332;2023-04-01T00:20:06;99394.66;;;10.67;90.47
19096;BME280;9680;52.520;13.332;2023-04-01T00:22:34;99398.94;;;10.68;89.73
19096;BME280;9680;52.520;13.332;2023-04-01T00:25:01;99403.22;;;10.69;90.10
19096;BME280;9680;52.520;13.332;2023-04-01T00:27:28;99407.50;;;10.70;90.01
19096;BME280;9680;52.520;13.332;2023-04-01T00:29:55;99403.03;;;10.72;89.75
19096;BME280;9680;52.520;13.332;2023-04-01T00:32:22;99404.63;;;10.75;90.10
19096;BME280;9680;52.520;13.332;2023-04-01T00:34:51;99398.50;;;10.76;89.84
19096;BME280;9680;52.520;13.332;2023-04-01T00:37:18;99399.31;;;10.76;89.77
19096;BME280;9680;52.520;13.332;2023-04-01T00:39:46;99395.88;;;10.76;89.47
19096;BME280;9680;52.520;13.332;2023-04-01T00:42:13;99398.38;;;10.77;89.34
19096;BME280;9680;52.520;13.332;2023-04-01T00:44:41;99400.81;;;10.81;89.47
19096;BME280;9680;52.520;13.332;2023-04-01T00:47:08;99403.31;;;10.82;89.32
19096;BME280;9680;52.520;13.332;2023-04-01T00:49:38;99394.78;;;10.80;89.27
19096;BME280;9680;52.520;13.332;2023-04-01T00:52:08;99399.78;;;10.83;89.19
19096;BME280;9680;52.520;13.332;2023-04-01T00:54:39;99395.41;;;10.84;88.87
19096;BME280;9680;52.520;13.332;2023-04-01T00:57:13;99407.78;;;10.80;89.05
19096;BME280;9680;52.520;13.332;2023-04-01T00:59:43;99397.44;;;10.78;89.30
19096;BME280;9680;52.520;13.332;2023-04-01T01:02:14;99399.22;;;10.78;89.06
19096;BME280;9680;52.520;13.332;2023-04-01T01:04:41;99400.16;;;10.77;89.11
19096;BME280;9680;52.520;13.332;2023-04-01T01:07:20;99400.91;;;10.79;89.30
19096;BME280;9680;52.520;13.332;2023-04-01T01:09:56;99399.78;;;10.83;89.53
19096;BME280;9680;52.520;13.332;2023-04-01T01:12:31;99404.16;;;10.83;89.18
19096;BME280;9680;52.520;13.332;2023-04-01T01:15:06;99406.00;;;10.81;89.33
19096;BME280;9680;52.520;13.332;2023-04-01T01:17:44;99397.25;;;10.82;89.50
19096;BME280;9680;52.520;13.332;2023-04-01T01:20:30;99403.22;;;10.84;89.37
19096;BME280;9680;52.520;13.332;2023-04-01T01:26:15;99415.50;;;10.82;89.61
19096;BME280;9680;52.520;13.332;2023-04-01T01:28:59;99412.25;;;10.78;89.62
19096;BME280;9680;52.520;13.332;2023-04-01T01:31:33;99404.72;;;10.73;89.52
19096;BME280;9680;52.520;13.332;2023-04-01T01:34:11;99411.78;;;10.71;89.93
19096;BME280;9680;52.520;13.332;2023-04-01T01:36:44;99409.16;;;10.71;90.12
19096;BME280;9680;52.520;13.332;2023-04-01T01:39:13;99411.78;;;10.71;90.17
19096;BME280;9680;52.520;13.332;2023-04-01T01:41:42;99402.22;;;10.72;90.75
19096;BME280;9680;52.520;13.332;2023-04-01T01:44:12;99413.44;;;10.72;90.78
19096;BME280;9680;52.520;13.332;2023-04-01T01:46:41;99412.53;;;10.73;90.77
19096;BME280;9680;52.520;13.332;2023-04-01T01:49:10;99417.72;;;10.73;90.82
19096;BME280;9680;52.520;13.332;2023-04-01T01:51:39;99414.19;;;10.74;90.89
19096;BME280;9680;52.520;13.332;2023-04-01T01:54:13;99417.91;;;10.70;90.84
19096;BME280;9680;52.520;13.332;2023-04-01T01:56:41;99416.06;;;10.72;91.21
19096;BME280;9680;52.520;13.332;2023-04-01T01:59:11;99424.63;;;10.74;90.78
19096;BME280;9680;52.520;13.332;2023-04-01T02:01:41;99422.00;;;10.74;90.89
19096;BME280;9680;52.520;13.332;2023-04-01T02:04:13;99421.19;;;10.74;90.29
19096;BME280;9680;52.520;13.332;2023-04-01T02:06:45;99423.88;;;10.72;90.54
19096;BME280;9680;52.520;13.332;2023-04-01T02:09:16;99424.06;;;10.69;90.06
19096;BME280;9680;52.520;13.332;2023-04-01T02:11:47;99420.69;;;10.67;89.97
19096;BME280;9680;52.520;13.332;2023-04-01T02:14:17;99417.34;;;10.65;90.22
19096;BME280;9680;52.520;13.332;2023-04-01T02:16:51;99420.81;;;10.66;90.15
19096;BME280;9680;52.520;13.332;2023-04-01T02:19:22;99424.22;;;10.66;90.02
19096;BME280;9680;52.520;13.332;2023-04-01T02:21:56;99421.44;;;10.69;90.30
19096;BME280;9680;52.520;13.332;2023-04-01T02:24:26;99430.13;;;10.70;89.71
19096;BME280;9680;52.520;13.332;2023-04-01T02:26:55;99415.59;;;10.66;89.85
19096;BME280;9680;52.520;13.332;2023-04-01T02:29:23;99421.00;;;10.62;89.72
19096;BME280;9680;52.520;13.332;2023-04-01T02:31:52;99423.50;;;10.64;89.65
19096;BME280;9680;52.520;13.332;2023-04-01T02:34:19;99426.09;;;10.64;90.01
19096;BME280;9680;52.520;13.332;2023-04-01T02:36:48;99429.56;;;10.65;89.72
19096;BME280;9680;52.520;13.332;2023-04-01T02:39:16;99433.16;;;10.62;90.09
19096;BME280;9680;52.520;13.332;2023-04-01T02:41:45;99433.28;;;10.60;89.97
19096;BME280;9680;52.520;13.332;2023-04-01T02:44:14;99432.34;;;10.61;89.93
19096;BME280;9680;52.520;13.332;2023-04-01T02:46:42;99432.66;;;10.55;90.14
19096;BME280;9680;52.520;13.332;2023-04-01T02:49:09;99429.50;;;10.50;90.05
19096;BME280;9680;52.520;13.332;2023-04-01T02:51:36;99439.63;;;10.40;90.35
19096;BME280;9680;52.520;13.332;2023-04-01T02:54:02;99445.00;;;10.37;90.86
19096;BME280;9680;52.520;13.332;2023-04-01T02:56:29;99448.59;;;10.34;91.35
19096;BME280;9680;52.520;13.332;2023-04-01T02:58:57;99438.84;;;10.38;91.49
19096;BME280;9680;52.520;13.332;2023-04-01T03:01:24;99444.00;;;10.40;91.84
19096;BME280;9680;52.520;13.332;2023-04-01T03:03:51;99443.91;;;10.41;91.88
19096;BME280;9680;52.520;13.332;2023-04-01T03:06:18;99447.16;;;10.45;91.76
19096;BME280;9680;52.520;13.332;2023-04-01T03:08:45;99448.59;;;10.51;91.55
19096;BME280;9680;52.520;13.332;2023-04-01T03:11:13;99448.47;;;10.52;91.62
19096;BME280;9680;52.520;13.332;2023-04-01T03:13:40;99450.25;;;10.52;91.30
19096;BME280;9680;52.520;13.332;2023-04-01T03:16:09;99446.72;;;10.53;91.42
19096;BME280;9680;52.520;13.332;2023-04-01T03:18:35;99455.28;;;10.55;91.50
19096;BME280;9680;52.520;13.332;2023-04-01T03:21:13;99452.69;;;10.55;91.23
19096;BME280;9680;52.520;13.332;2023-04-01T03:26:39;99449.16;;;10.56;90.73
19096;BME280;9680;52.520;13.332;2023-04-01T03:29:06;99446.53;;;10.56;90.79
19096;BME280;9680;52.520;13.332;2023-04-01T03:31:34;99448.22;;;10.57;90.87
19096;BME280;9680;52.520;13.332;2023-04-01T03:34:01;99449.78;;;10.59;91.19
19096;BME280;9680;52.520;13.332;2023-04-01T03:36:28;99452.41;;;10.59;90.90
19096;BME280;9680;52.520;13.332;2023-04-01T03:38:55;99454.19;;;10.59;91.01
19096;BME280;9680;52.520;13.332;2023-04-01T03:41:32;99459.31;;;10.60;91.20
19096;BME280;9680;52.520;13.332;2023-04-01T03:43:59;99461.81;;;10.62;91.02
19096;BME280;9680;52.520;13.332;2023-04-01T03:46:27;99464.34;;;10.63;91.11
19096;BME280;9680;52.520;13.332;2023-04-01T03:48:55;99461.56;;;10.67;91.32
19096;BME280;9680;52.520;13.332;2023-04-01T03:51:22;99468.44;;;10.68;91.12
19096;BME280;9680;52.520;13.332;2023-04-01T03:53:49;99470.94;;;10.69;90.87
19096;BME280;9680;52.520;13.332;2023-04-01T03:56:16;99470.00;;;10.70;91.01
19096;BME280;9680;52.520;13.332;2023-04-01T03:58:42;99469.81;;;10.73;90.70
19096;BME280;9680;52.520;13.332;2023-04-01T04:01:16;99474.97;;;10.75;90.34
19096;BME280;9680;52.520;13.332;2023-04-01T04:03:44;99478.31;;;10.77;90.24
19096;BME280;9680;52.520;13.332;2023-04-01T04:06:13;99478.56;;;10.72;89.93
19096;BME280;9680;52.520;13.332;2023-04-01T04:08:40;99481.84;;;10.76;90.28
19096;BME280;9680;52.520;13.332;2023-04-01T04:11:07;99479.13;;;10.77;90.06
19096;BME280;9680;52.520;13.332;2023-04-01T04:13:37;99485.19;;;10.78;90.29
19096;BME280;9680;52.520;13.332;2023-04-01T04:16:05;99486.31;;;10.74;90.36
19096;BME280;9680;52.520;13.332;2023-04-01T04:18:34;99492.25;;;10.76;90.60
19096;BME280;9680;52.520;13.332;2023-04-01T04:21:01;99488.72;;;10.77;90.34
19096;BME280;9680;52.520;13.332;2023-04-01T04:23:29;99488.72;;;10.77;90.24
19096;BME280;9680;52.520;13.332;2023-04-01T04:26:00;99498.41;;;10.75;90.15
19096;BME280;9680;52.520;13.332;2023-04-01T04:28:29;99494.88;;;10.76;90.50
19096;BME280;9680;52.520;13.332;2023-04-01T04:30:58;99490.47;;;10.76;90.51
19096;BME280;9680;52.520;13.332;2023-04-01T04:33:25;99494.88;;;10.76;90.49
19096;BME280;9680;52.520;13.332;2023-04-01T04:35:55;99493.25;;;10.73;90.26
19096;BME280;9680;52.520;13.332;2023-04-01T04:38:22;99501.00;;;10.75;90.49
19096;BME280;9680;52.520;13.332;2023-04-01T04:40:51;99508.81;;;10.75;90.86
19096;BME280;9680;52.520;13.332;2023-04-01T04:43:18;99509.47;;;10.78;90.77
19096;BME280;9680;52.520;13.332;2023-04-01T04:45:45;99512.91;;;10.79;90.79
19096;BME280;9680;52.520;13.332;2023-04-01T04:48:14;99502.50;;;10.79;90.51
19096;BME280;9680;52.520;13.332;2023-04-01T04:50:45;99509.38;;;10.80;90.62
19096;BME280;9680;52.520;13.332;2023-04-01T04:53:15;99512.25;;;10.75;90.54
19096;BME280;9680;52.520;13.332;2023-04-01T04:55:43;99506.66;;;10.67;90.25
19096;BME280;9680;52.520;13.332;2023-04-01T04:58:21;99508.50;;;10.65;90.76
19096;BME280;9680;52.520;13.332;2023-04-01T05:00:49;99510.47;;;10.61;91.07
19096;BME280;9680;52.520;13.332;2023-04-01T05:03:24;99509.78;;;10.58;91.16
19096;BME280;9680;52.520;13.332;2023-04-01T05:05:52;99511.81;;;10.53;91.85
19096;BME280;9680;52.520;13.332;2023-04-01T05:08:20;99514.31;;;10.54;92.18
19096;BME280;9680;52.520;13.332;2023-04-01T05:10:47;99515.94;;;10.57;92.47
19096;BME280;9680;52.520;13.332;2023-04-01T05:13:14;99515.69;;;10.61;92.82
19096;BME280;9680;52.520;13.332;2023-04-01T05:15:46;99519.09;;;10.62;92.94
19096;BME280;9680;52.520;13.332;2023-04-01T05:18:13;99522.44;;;10.64;92.82
19096;BME280;9680;52.520;13.332;2023-04-01T05:20:46;99525.16;;;10.62;93.20
19096;BME280;9680;52.520;13.332;2023-04-01T05:23:13;99526.91;;;10.62;93.33
19096;BME280;9680;52.520;13.332;2023-04-01T05:25:40;99527.75;;;10.62;93.55
19096;BME280;9680;52.520;13.332;2023-04-01T05:28:08;99523.31;;;10.65;94.04
19096;BME280;9680;52.520;13.332;2023-04-01T05:30:35;99523.03;;;10.69;94.23
19096;BME280;9680;52.520;13.332;2023-04-01T05:33:23;99528.06;;;10.72;93.59
19096;BME280;9680;52.520;13.332;2023-04-01T05:35:50;99530.66;;;10.72;93.42
19096;BME280;9680;52.520;13.332;2023-04-01T05:38:17;99537.47;;;10.75;93.48
19096;BME280;9680;52.520;13.332;2023-04-01T05:40:44;99534.59;;;10.80;93.40
19096;BME280;9680;52.520;13.332;2023-04-01T05:43:11;99535.44;;;10.80;93.22
19096;BME280;9680;52.520;13.332;2023-04-01T05:45:39;99537.94;;;10.82;93.34
19096;BME280;9680;52.520;13.332;2023-04-01T05:48:34;99537.69;;;10.86;93.21
19096;BME280;9680;52.520;13.332;2023-04-01T05:51:01;99540.94;;;10.90;93.70
19096;BME280;9680;52.520;13.332;2023-04-01T05:53:28;99545.81;;;10.96;93.88
19096;BME280;9680;52.520;13.332;2023-04-01T05:55:55;99545.25;;;11.05;93.43
19096;BME280;9680;52.520;13.332;2023-04-01T05:58:25;99548.06;;;11.17;93.57
19096;BME280;9680;52.520;13.332;2023-04-01T06:01:00;99546.84;;;11.22;92.87
19096;BME280;9680;52.520;13.332;2023-04-01T06:03:26;99551.72;;;11.29;92.60
19096;BME280;9680;52.520;13.332;2023-04-01T06:05:56;99556.56;;;11.35;92.51
19096;BME280;9680;52.520;13.332;2023-04-01T06:08:27;99558.25;;;11.36;91.47
19096;BME280;9680;52.520;13.332;2023-04-01T06:11:15;99555.44;;;11.39;91.70
19096;BME280;9680;52.520;13.332;2023-04-01T06:14:10;99557.94;;;11.41;91.43
19096;BME280;9680;52.520;13.332;2023-04-01T06:16:53;99561.50;;;11.40;91.25
19096;BME280;9680;52.520;13.332;2023-04-01T06:19:32;99562.72;;;11.34;90.88
19096;BME280;9680;52.520;13.332;2023-04-01T06:22:25;99563.91;;;11.28;91.15
19096;BME280;9680;52.520;13.332;2023-04-01T06:25:18;99574.50;;;11.25;91.02
19096;BME280;9680;52.520;13.332;2023-04-01T06:28:07;99573.03;;;11.21;91.22
19096;BME280;9680;52.520;13.332;2023-04-01T06:30:43;99589.41;;;11.23;91.10
19096;BME280;9680;52.520;13.332;2023-04-01T06:33:28;99580.72;;;11.22;90.85
19096;BME280;9680;52.520;13.332;2023-04-01T06:36:27;99582.53;;;11.22;90.66
19096;BME280;9680;52.520;13.332;2023-04-01T06:39:17;99584.88;;;11.27;90.68
19096;BME280;9680;52.520;13.332;2023-04-01T06:42:13;99581.03;;;11.32;90.66
19096;BME280;9680;52.520;13.332;2023-04-01T06:44:55;99582.63;;;11.35;90.62
19096;BME280;9680;52.520;13.332;2023-04-01T06:47:54;99589.25;;;11.41;90.25
19096;BME280;9680;52.520;13.332;2023-04-01T06:51:11;99592.78;;;11.40;90.42
19096;BME280;9680;52.520;13.332;2023-04-01T06:54:17;99592.41;;;11.46;90.23
19096;BME280;9680;52.520;13.332;2023-04-01T06:57:12;99590.53;;;11.48;89.86
19096;BME280;9680;52.520;13.332;2023-04-01T06:59:43;99591.03;;;11.55;89.64
19096;BME280;9680;52.520;13.332;2023-04-01T07:02:20;99598.19;;;11.51;89.32
19096;BME280;9680;52.520;13.332;2023-04-01T07:04:51;99600.97;;;11.48;88.95
19096;BME280;9680;52.520;13.332;2023-04-01T07:07:25;99601.91;;;11.47;89.36
19096;BME280;9680;52.520;13.332;2023-04-01T07:10:04;99599.28;;;11.47;89.37
19096;BME280;9680;52.520;13.332;2023-04-01T07:12:39;99603.03;;;11.57;90.10
19096;BME280;9680;52.520;13.332;2023-04-01T07:15:30;99600.81;;;11.65;90.00
19096;BME280;9680;52.520;13.332;2023-04-01T07:18:05;99602.31;;;11.70;89.25
19096;BME280;9680;52.520;13.332;2023-04-01T07:20:37;99605.09;;;11.81;89.15
19096;BME280;9680;52.520;13.332;2023-04-01T07:23:10;99606.19;;;11.91;88.98
19096;BME280;9680;52.520;13.332;2023-04-01T07:26:13;99604.16;;;11.97;88.57
19096;BME280;9680;52.520;13.332;2023-04-01T07:29:05;99613.94;;;11.93;87.99
19096;BME280;9680;52.520;13.332;2023-04-01T07:32:06;99620.00;;;11.93;88.05
19096;BME280;9680;52.520;13.332;2023-04-01T07:34:38;99615.53;;;11.95;87.42
19096;BME280;9680;52.520;13.332;2023-04-01T07:37:12;99612.91;;;11.95;87.42
19096;BME280;9680;52.520;13.332;2023-04-01T07:39:50;99614.69;;;11.95;86.71
19096;BME280;9680;52.520;13.332;2023-04-01T07:42:39;99623.00;;;12.02;87.46
19096;BME280;9680;52.520;13.332;2023-04-01T07:45:16;99616.63;;;12.20;87.72
19096;BME280;9680;52.520;13.332;2023-04-01T07:48:04;99619.84;;;12.38;87.29
19096;BME280;9680;52.520;13.332;2023-04-01T07:50:38;99627.38;;;12.58;86.66
19096;BME280;9680;52.520;13.332;2023-04-01T07:53:16;99615.50;;;12.79;86.25
19096;BME280;9680;52.520;13.332;2023-04-01T07:55:51;99616.28;;;12.94;85.39
19096;BME280;9680;52.520;13.332;2023-04-01T07:58:29;99623.84;;;12.99;84.41
19096;BME280;9680;52.520;13.332;2023-04-01T08:01:06;99624.66;;;13.00;83.89
19096;BME280;9680;52.520;13.332;2023-04-01T08:03:52;99623.72;;;13.01;83.52
19096;BME280;9680;52.520;13.332;2023-04-01T08:06:27;99636.59;;;13.04;82.88
19096;BME280;9680;52.520;13.332;2023-04-01T08:09:06;99629.50;;;13.06;82.48
19096;BME280;9680;52.520;13.332;2023-04-01T08:12:08;99630.47;;;13.18;82.16
19096;BME280;9680;52.520;13.332;2023-04-01T08:15:17;99630.13;;;13.09;81.39
19096;BME280;9680;52.520;13.332;2023-04-01T08:17:54;99636.84;;;13.14;82.56
19096;BME280;9680;52.520;13.332;2023-04-01T08:20:28;99637.56;;;13.16;82.04
19096;BME280;9680;52.520;13.332;2023-04-01T08:23:02;99644.56;;;13.15;81.71
19096;BME280;9680;52.520;13.332;2023-04-01T08:25:40;99646.22;;;13.03;81.19
19096;BME280;9680;52.520;13.332;2023-04-01T08:28:16;99647.22;;;12.88;82.28
19096;BME280;9680;52.520;13.332;2023-04-01T08:30:49;99648.66;;;12.79;82.75
19096;BME280;9680;52.520;13.332;2023-04-01T08:33:21;99654.44;;;12.57;81.81
19096;BME280;9680;52.520;13.332;2023-04-01T08:35:57;99661.22;;;12.32;83.04
19096;BME280;9680;52.520;13.332;2023-04-01T08:38:32;99671.28;;;12.09;84.15
19096;BME280;9680;52.520;13.332;2023-04-01T08:41:16;99664.44;;;11.63;84.28
19096;BME280;9680;52.520;13.332;2023-04-01T08:44:20;99680.06;;;11.18;86.29
19096;BME280;9680;52.520;13.332;2023-04-01T08:50:30;99673.66;;;10.45;89.15
19096;BME280;9680;52.520;13.332;2023-04-01T08:53:34;99675.19;;;10.49;90.41
19096;BME280;9680;52.520;13.332;2023-04-01T08:56:14;99685.19;;;10.57;90.93
19096;BME280;9680;52.520;13.332;2023-04-01T08:59:13;99678.72;;;10.80;90.87
19096;BME280;9680;52.520;13.332;2023-04-01T09:02:11;99678.59;;;10.98;89.54
19096;BME280;9680;52.520;13.332;2023-04-01T09:05:30;99685.69;;;11.26;88.73
19096;BME280;9680;52.520;13.332;2023-04-01T09:08:09;99686.47;;;11.43;86.24
19096;BME280;9680;52.520;13.332;2023-04-01T09:10:55;99687.59;;;11.53;85.26
19096;BME280;9680;52.520;13.332;2023-04-01T09:14:29;99684.69;;;11.74;84.88
19096;BME280;9680;52.520;13.332;2023-04-01T09:17:45;99693.91;;;11.94;83.88
19096;BME280;9680;52.520;13.332;2023-04-01T09:20:32;99696.41;;;11.95;82.52
19096;BME280;9680;52.520;13.332;2023-04-01T09:23:20;99696.13;;;11.86;82.77
19096;BME280;9680;52.520;13.332;2023-04-01T09:25:58;99701.34;;;11.71;81.91
19096;BME280;9680;52.520;13.332;2023-04-01T09:28:38;99711.00;;;11.55;82.01
19096;BME280;9680;52.520;13.332;2023-04-01T09:31:38;99713.41;;;11.43;82.71
19096;BME280;9680;52.520;13.332;2023-04-01T09:34:52;99720.50;;;11.25;82.60
19096;BME280;9680;52.520;13.332;2023-04-01T09:37:34;99723.47;;;11.19;82.69
19096;BME280;9680;52.520;13.332;2023-04-01T09:40:16;99729.03;;;11.13;82.94
19096;BME280;9680;52.520;13.332;2023-04-01T09:43:05;99732.22;;;11.18;82.95
19096;BME280;9680;52.520;13.332;2023-04-01T09:45:48;99733.44;;;10.96;82.81
19096;BME280;9680;52.520;13.332;2023-04-01T09:48:29;99738.53;;;10.98;83.17
19096;BME280;9680;52.520;13.332;2023-04-01T09:51:07;99730.38;;;10.88;83.09
19096;BME280;9680;52.520;13.332;2023-04-01T09:53:53;99731.88;;;10.92;83.70
19096;BME280;9680;52.520;13.332;2023-04-01T09:59:39;99739.78;;;11.06;83.33
19096;BME280;9680;52.520;13.332;2023-04-01T10:12:22;99754.00;;;11.01;82.49
19096;BME280;9680;52.520;13.332;2023-04-01T10:28:19;99772.34;;;10.83;82.92
19096;BME280;9680;52.520;13.332;2023-04-01T10:31:32;99763.50;;;10.70;83.35
19096;BME280;9680;52.520;13.332;2023-04-01T10:37:03;99773.50;;;10.61;83.21
19096;BME280;9680;52.520;13.332;2023-04-01T10:40:13;99770.88;;;10.45;84.19
19096;BME280;9680;52.520;13.332;2023-04-01T10:43:31;99777.50;;;10.51;84.96
19096;BME280;9680;52.520;13.332;2023-04-01T10:46:30;99788.63;;;10.37;85.50
19096;BME280;9680;52.520;13.332;2023-04-01T10:49:37;99782.47;;;10.04;88.54
19096;BME280;9680;52.520;13.332;2023-04-01T10:52:22;99795.22;;;10.09;88.29
19096;BME280;9680;52.520;13.332;2023-04-01T10:55:58;99790.50;;;10.00;88.45
19096;BME280;9680;52.520;13.332;2023-04-01T10:59:16;99801.13;;;10.13;88.84
19096;BME280;9680;52.520;13.332;2023-04-01T11:06:43;99800.28;;;10.12;86.61
19096;BME280;9680;52.520;13.332;2023-04-01T11:09:58;99804.44;;;9.81;86.28
19096;BME280;9680;52.520;13.332;2023-04-01T11:16:08;99810.72;;;9.95;88.63
19096;BME280;9680;52.520;13.332;2023-04-01T11:19:15;99809.94;;;10.10;88.00
19096;BME280;9680;52.520;13.332;2023-04-01T11:22:10;99814.94;;;9.97;86.29
19096;BME280;9680;52.520;13.332;2023-04-01T11:24:58;99811.16;;;9.85;87.74
19096;BME280;9680;52.520;13.332;2023-04-01T11:27:48;99820.66;;;10.04;89.13
19096;BME280;9680;52.520;13.332;2023-04-01T11:30:24;99823.31;;;10.20;87.42
19096;BME280;9680;52.520;13.332;2023-04-01T11:33:01;99823.72;;;10.30;87.21
19096;BME280;9680;52.520;13.332;2023-04-01T11:35:42;99829.34;;;10.38;85.94
19096;BME280;9680;52.520;13.332;2023-04-01T11:38:29;99826.16;;;10.33;85.51
19096;BME280;9680;52.520;13.332;2023-04-01T11:41:25;99827.56;;;10.39;85.33
19096;BME280;9680;52.520;13.332;2023-04-01T11:44:12;99841.78;;;10.33;84.21
19096;BME280;9680;52.520;13.332;2023-04-01T11:47:27;99839.53;;;10.25;85.10
19096;BME280;9680;52.520;13.332;2023-04-01T11:50:12;99842.84;;;10.29;85.77
19096;BME280;9680;52.520;13.332;2023-04-01T11:53:05;99849.31;;;10.38;86.12
19096;BME280;9680;52.520;13.332;2023-04-01T11:55:45;99855.22;;;10.24;84.98
19096;BME280;9680;52.520;13.332;2023-04-01T11:58:34;99852.31;;;10.12;84.22
19096;BME280;9680;52.520;13.332;2023-04-01T12:01:23;99863.19;;;10.03;84.99
19096;BME280;9680;52.520;13.332;2023-04-01T12:04:04;99875.28;;;10.04;85.58
19096;BME280;9680;52.520;13.332;2023-04-01T12:06:43;99872.22;;;10.13;85.70
19096;BME280;9680;52.520;13.332;2023-04-01T12:09:18;99874.09;;;10.29;85.37
19096;BME280;9680;52.520;13.332;2023-04-01T12:11:52;99878.50;;;10.27;85.20
19096;BME280;9680;52.520;13.332;2023-04-01T12:14:32;99877.44;;;10.31;83.86
19096;BME280;9680;52.520;13.332;2023-04-01T12:17:08;99879.97;;;10.32;83.92
19096;BME280;9680;52.520;13.332;2023-04-01T12:19:43;99878.53;;;10.44;83.79
19096;BME280;9680;52.520;13.332;2023-04-01T12:22:34;99890.47;;;10.48;81.61
19096;BME280;9680;52.520;13.332;2023-04-01T12:25:17;99888.25;;;10.41;81.57
19096;BME280;9680;52.520;13.332;2023-04-01T12:27:59;99892.91;;;10.34;81.10
19096;BME280;9680;52.520;13.332;2023-04-01T12:30:51;99889.31;;;10.19;81.89
19096;BME280;9680;52.520;13.332;2023-04-01T12:33:41;99892.28;;;10.11;82.15
19096;BME280;9680;52.520;13.332;2023-04-01T12:36:22;99896.81;;;10.08;82.78
19096;BME280;9680;52.520;13.332;2023-04-01T12:39:11;99902.16;;;10.04;82.86
19096;BME280;9680;52.520;13.332;2023-04-01T12:41:49;99907.06;;;10.11;82.66
19096;BME280;9680;52.520;13.332;2023-04-01T12:44:37;99904.44;;;9.93;81.48
19096;BME280;9680;52.520;13.332;2023-04-01T12:47:18;99911.75;;;9.85;82.63
19096;BME280;9680;52.520;13.332;2023-04-01T12:53:24;99920.13;;;9.91;82.63
19096;BME280;9680;52.520;13.332;2023-04-01T12:56:02;99913.03;;;9.95;82.90
19096;BME280;9680;52.520;13.332;2023-04-01T12:59:01;99923.81;;;9.87;82.09
19096;BME280;9680;52.520;13.332;2023-04-01T13:01:56;99931.56;;;9.70;82.16
19096;BME280;9680;52.520;13.332;2023-04-01T13:07:41;99929.28;;;9.44;82.96
19096;BME280;9680;52.520;13.332;2023-04-01T13:10:21;99948.50;;;9.21;83.45
19096;BME280;9680;52.520;13.332;2023-04-01T13:16:02;99952.34;;;9.12;84.45
19096;BME280;9680;52.520;13.332;2023-04-01T13:18:38;99948.50;;;9.21;85.20
19096;BME280;9680;52.520;13.332;2023-04-01T13:21:13;99958.34;;;9.33;84.48
19096;BME280;9680;52.520;13.332;2023-04-01T13:23:51;99957.44;;;9.35;84.09
19096;BME280;9680;52.520;13.332;2023-04-01T13:26:27;99955.69;;;9.35;84.03
19096;BME280;9680;52.520;13.332;2023-04-01T13:29:04;99973.38;;;9.46;84.46
19096;BME280;9680;52.520;13.332;2023-04-01T13:31:40;99972.53;;;9.45;83.34
19096;BME280;9680;52.520;13.332;2023-04-01T13:34:22;99981.13;;;9.47;83.64
19096;BME280;9680;52.520;13.332;2023-04-01T13:37:01;99985.91;;;9.57;83.27
19096;BME280;9680;52.520;13.332;2023-04-01T13:39:41;99974.28;;;9.64;82.74
19096;BME280;9680;52.520;13.332;2023-04-01T13:42:19;99975.00;;;9.68;82.33
19096;BME280;9680;52.520;13.332;2023-04-01T13:44:55;99983.78;;;9.65;81.59
19096;BME280;9680;52.520;13.332;2023-04-01T13:50:36;99988.69;;;9.52;80.94
19096;BME280;9680;52.520;13.332;2023-04-01T13:53:23;99989.03;;;9.25;82.35
19096;BME280;9680;52.520;13.332;2023-04-01T13:56:04;99989.34;;;9.38;82.75
19096;BME280;9680;52.520;13.332;2023-04-01T13:58:57;99994.31;;;9.43;82.43
19096;BME280;9680;52.520;13.332;2023-04-01T14:01:32;99986.88;;;9.35;82.39
19096;BME280;9680;52.520;13.332;2023-04-01T14:04:26;99999.28;;;9.28;81.53
19096;BME280;9680;52.520;13.332;2023-04-01T14:07:01;100001.25;;;9.23;81.89
19096;BME280;9680;52.520;13.332;2023-04-01T14:10:07;100004.44;;;9.09;82.00
19096;BME280;9680;52.520;13.332;2023-04-01T14:12:42;100011.47;;;9.07;81.72
19096;BME280;9680;52.520;13.332;2023-04-01T14:15:38;100003.53;;;9.10;82.14
19096;BME280;9680;52.520;13.332;2023-04-01T14:18:30;100006.50;;;9.22;82.31
19096;BME280;9680;52.520;13.332;2023-04-01T14:21:16;100020.31;;;9.43;81.18
19096;BME280;9680;52.520;13.332;2023-04-01T14:24:07;100027.84;;;9.30;80.48
19096;BME280;9680;52.520;13.332;2023-04-01T14:27:09;100027.28;;;9.22;80.65
19096;BME280;9680;52.520;13.332;2023-04-01T14:29:51;100040.50;;;9.17;80.97
19096;BME280;9680;52.520;13.332;2023-04-01T14:32:31;100041.03;;;9.05;81.15
19096;BME280;9680;52.520;13.332;2023-04-01T14:35:22;100050.69;;;8.80;81.32
19096;BME280;9680;52.520;13.332;2023-04-01T14:38:14;100044.88;;;8.53;82.17
19096;BME280;9680;52.520;13.332;2023-04-01T14:40:54;100048.00;;;8.39;83.94
19096;BME280;9680;52.520;13.332;2023-04-01T14:43:47;100054.50;;;8.51;84.42
19096;BME280;9680;52.520;13.332;2023-04-01T14:46:31;100043.47;;;8.66;84.28
19096;BME280;9680;52.520;13.332;2023-04-01T14:49:02;100062.97;;;8.77;83.11
19096;BME280;9680;52.520;13.332;2023-04-01T14:51:35;100061.66;;;8.66;81.82
19096;BME280;9680;52.520;13.332;2023-04-01T14:54:06;100071.56;;;8.56;82.15
19096;BME280;9680;52.520;13.332;2023-04-01T14:56:38;100064.75;;;8.54;81.71
19096;BME280;9680;52.520;13.332;2023-04-01T14:59:09;100070.97;;;8.50;82.17